createdAt,value
2019-05-25T06:51:42.766Z,10.88
2019-05-25T06:54:18.902Z,10.88
2019-05-25T06:56:55.865Z,10.79
2019-05-25T06:59:32.295Z,10.79
2019-05-25T07:02:05.368Z,10.76
2019-05-25T07:04:40.966Z,10.65
2019-05-25T07:07:14.409Z,10.80
2019-05-25T07:09:51.682Z,10.89
2019-05-25T07:12:31.551Z,11.03
2019-05-25T07:15:03.243Z,11.07
2019-05-25T07:17:35.788Z,11.14
2019-05-25T07:20:17.204Z,11.17
2019-05-25T07:22:55.554Z,11.17
2019-05-25T07:25:43.263Z,11.34
2019-05-25T07:28:44.943Z,11.09
2019-05-25T07:31:24.077Z,11.50
2019-05-25T07:34:02.428Z,12.01
2019-05-25T07:36:35.825Z,11.86
2019-05-25T07:39:08.441Z,12.42
2019-05-25T07:41:53.690Z,12.51
2019-05-25T07:44:32.189Z,12.85
2019-05-25T07:47:04.774Z,13.26
2019-05-25T07:49:40.547Z,13.56
2019-05-25T07:52:13.959Z,13.73
2019-05-25T07:54:52.091Z,14.61
2019-05-25T07:57:28.341Z,14.01
2019-05-25T08:00:01.307Z,14.30
2019-05-25T08:02:34.695Z,14.85
2019-05-25T08:05:12.416Z,15.00
2019-05-25T08:07:46.077Z,15.21
2019-05-25T08:10:21.709Z,15.77
2019-05-25T08:12:55.070Z,15.68
2019-05-25T08:15:30.701Z,15.83
2019-05-25T08:18:12.843Z,15.46
2019-05-25T08:20:54.174Z,15.31
2019-05-25T08:23:31.975Z,15.42
2019-05-25T08:26:07.373Z,15.51
2019-05-25T08:28:45.082Z,15.70
2019-05-25T08:31:22.565Z,15.80
2019-05-25T08:33:59.667Z,15.74
2019-05-25T08:36:34.364Z,15.68
2019-05-25T08:39:09.422Z,15.56
2019-05-25T08:41:45.597Z,15.88
2019-05-25T08:44:21.451Z,16.83
2019-05-25T08:46:55.447Z,16.14
2019-05-25T08:49:31.645Z,15.87
2019-05-25T08:52:06.156Z,15.97
2019-05-25T08:54:43.833Z,16.45
2019-05-25T08:57:18.651Z,15.99
2019-05-25T08:59:53.463Z,15.83
2019-05-25T09:02:27.073Z,16.10
2019-05-25T09:05:03.287Z,15.88
2019-05-25T09:07:36.521Z,16.15
2019-05-25T09:10:11.906Z,16.50
2019-05-25T09:12:45.959Z,17.24
2019-05-25T09:15:25.214Z,16.46
2019-05-25T09:18:02.089Z,16.55
2019-05-25T09:20:35.673Z,15.84
2019-05-25T09:23:12.714Z,16.86
2019-05-25T09:25:51.489Z,16.90
2019-05-25T09:28:27.145Z,16.22
2019-05-25T09:31:04.515Z,16.94
2019-05-25T09:33:38.036Z,16.50
2019-05-25T09:36:13.579Z,17.17
2019-05-25T09:38:51.052Z,16.96
2019-05-25T09:41:31.548Z,17.48
2019-05-25T09:44:06.191Z,17.49
2019-05-25T09:46:44.608Z,17.36
2019-05-25T09:49:21.484Z,17.30
2019-05-25T09:51:54.945Z,18.51
2019-05-25T09:54:28.309Z,19.19
2019-05-25T09:57:04.114Z,20.03
2019-05-25T09:59:37.587Z,20.35
2019-05-25T10:02:11.751Z,20.61
2019-05-25T10:04:44.809Z,17.22
2019-05-25T10:07:21.308Z,17.22
2019-05-25T10:09:57.529Z,17.35
2019-05-25T10:12:34.105Z,19.21
2019-05-25T10:15:09.333Z,20.71
2019-05-25T10:17:44.366Z,20.60
2019-05-25T10:20:22.253Z,19.32
2019-05-25T10:22:55.671Z,20.66
2019-05-25T10:25:31.985Z,22.76
2019-05-25T10:28:06.965Z,19.50
2019-05-25T10:30:43.544Z,19.71
2019-05-25T10:33:16.111Z,18.72
2019-05-25T10:35:53.553Z,18.72
2019-05-25T10:38:26.719Z,18.32
2019-05-25T10:41:04.021Z,19.01
2019-05-25T10:43:40.834Z,19.01
2019-05-25T10:46:14.369Z,18.12
2019-05-25T10:48:47.656Z,18.96
2019-05-25T10:51:23.279Z,18.76
2019-05-25T10:54:02.634Z,18.76
2019-05-25T10:56:35.568Z,18.12
2019-05-25T10:59:09.316Z,18.53
2019-05-25T11:01:54.648Z,18.78
2019-05-25T11:04:44.768Z,18.46
2019-05-25T11:07:25.834Z,18.46
2019-05-25T11:10:03.222Z,18.96
2019-05-25T11:12:42.861Z,18.96
2019-05-25T11:15:20.299Z,19.40
2019-05-25T11:17:56.961Z,19.40
2019-05-25T11:20:53.476Z,19.27
2019-05-25T11:23:26.390Z,19.59
2019-05-25T11:26:02.689Z,19.28
2019-05-25T11:28:42.522Z,20.20
2019-05-25T11:31:14.439Z,18.84
2019-05-25T11:33:53.005Z,18.83
2019-05-25T11:36:23.429Z,18.97
2019-05-25T11:39:03.709Z,19.23
2019-05-25T11:41:34.548Z,19.23
2019-05-25T11:44:12.982Z,18.38
2019-05-25T11:46:46.419Z,18.13
2019-05-25T11:49:22.516Z,18.55
2019-05-25T11:51:55.447Z,18.62
2019-05-25T11:54:32.338Z,18.74
2019-05-25T11:57:05.383Z,19.48
2019-05-25T11:59:44.674Z,20.68
2019-05-25T12:02:16.319Z,21.11
2019-05-25T12:04:52.661Z,20.16
2019-05-25T12:07:26.615Z,20.47
2019-05-25T12:10:04.395Z,19.60
2019-05-25T12:12:39.724Z,19.41
2019-05-25T12:15:16.325Z,20.54
2019-05-25T12:17:52.833Z,20.54
2019-05-25T12:20:31.115Z,20.50
2019-05-25T12:23:02.198Z,20.50
2019-05-25T12:25:35.738Z,20.52
2019-05-25T12:28:13.379Z,20.95
2019-05-25T12:30:46.354Z,20.30
2019-05-25T12:33:23.682Z,20.30
2019-05-25T12:35:57.396Z,21.07
2019-05-25T12:38:35.288Z,21.70
2019-05-25T12:41:13.894Z,21.32
2019-05-25T12:43:48.561Z,20.24
2019-05-25T12:46:21.954Z,20.33
2019-05-25T12:48:56.039Z,20.33
2019-05-25T12:51:29.429Z,19.97
2019-05-25T12:54:02.160Z,18.06
2019-05-25T12:56:35.271Z,18.52
2019-05-25T12:59:08.827Z,19.42
2019-05-25T13:01:42.445Z,19.20
2019-05-25T13:04:15.604Z,18.28
2019-05-25T13:06:48.721Z,19.81
2019-05-25T13:09:21.332Z,19.81
2019-05-25T13:11:54.592Z,19.73
2019-05-25T13:14:27.564Z,19.73
2019-05-25T13:17:01.448Z,18.39
2019-05-25T13:19:34.328Z,19.16
2019-05-25T13:22:07.381Z,19.79
2019-05-25T13:24:40.755Z,18.48
2019-05-25T13:27:14.405Z,18.87
2019-05-25T13:29:47.003Z,18.37
2019-05-25T13:32:22.600Z,18.06
2019-05-25T13:34:55.868Z,18.00
2019-05-25T13:37:29.421Z,18.03
2019-05-25T13:40:03.328Z,17.52
2019-05-25T13:42:37.130Z,17.77
2019-05-25T13:45:10.962Z,18.76
2019-05-25T13:47:43.983Z,19.07
2019-05-25T13:50:21.117Z,18.82
2019-05-25T13:52:53.836Z,18.79
2019-05-25T13:55:27.023Z,18.88
2019-05-25T13:58:00.342Z,19.59
2019-05-25T14:00:33.721Z,19.54
2019-05-25T14:03:07.582Z,19.72
2019-05-25T14:05:41.077Z,19.76
2019-05-25T14:08:14.752Z,19.41
2019-05-25T14:10:47.790Z,19.85
2019-05-25T14:13:21.629Z,19.85
2019-05-25T14:16:06.716Z,20.90
2019-05-25T14:18:30.048Z,21.84
2019-05-25T14:21:03.670Z,21.44
2019-05-25T14:23:36.816Z,22.17
2019-05-25T14:26:09.630Z,21.34
2019-05-25T14:28:42.633Z,20.34
2019-05-25T14:31:44.355Z,18.74
2019-05-25T14:34:04.780Z,18.94
2019-05-25T14:36:37.151Z,18.94
2019-05-25T14:39:10.311Z,18.86
2019-05-25T14:41:43.121Z,19.45
2019-05-25T14:44:16.020Z,19.34
2019-05-25T14:46:49.562Z,18.85
2019-05-25T14:49:22.877Z,18.85
2019-05-25T14:51:56.282Z,20.39
2019-05-25T14:54:28.978Z,19.63
2019-05-25T14:57:01.731Z,19.61
2019-05-25T14:59:34.729Z,19.11
2019-05-25T15:02:07.729Z,18.22
2019-05-25T15:04:41.115Z,18.49
2019-05-25T15:07:14.947Z,18.55
2019-05-25T15:09:48.571Z,19.73
2019-05-25T15:12:24.087Z,20.71
2019-05-25T15:14:59.050Z,20.15
2019-05-25T15:17:31.952Z,19.81
2019-05-25T15:20:05.633Z,19.50
2019-05-25T15:22:39.227Z,19.21
2019-05-25T15:25:13.196Z,19.21
2019-05-25T15:27:48.226Z,18.77
2019-05-25T15:30:20.980Z,18.40
2019-05-25T15:32:54.106Z,18.47
2019-05-25T15:35:28.845Z,18.70
2019-05-25T15:38:02.372Z,18.57
2019-05-25T15:40:39.425Z,18.54
2019-05-25T15:43:12.393Z,19.35
2019-05-25T15:45:48.288Z,19.52
2019-05-25T15:48:21.094Z,18.72
2019-05-25T15:50:55.915Z,19.43
2019-05-25T15:53:29.124Z,19.14
2019-05-25T15:56:02.671Z,19.07
2019-05-25T15:58:39.921Z,18.83
2019-05-25T16:01:15.128Z,19.26
2019-05-25T16:03:51.053Z,18.92
2019-05-25T16:06:24.547Z,18.57
2019-05-25T16:09:00.328Z,18.57
2019-05-25T16:11:36.188Z,18.46
2019-05-25T16:14:09.184Z,17.79
2019-05-25T16:16:42.709Z,17.53
2019-05-25T16:19:18.314Z,17.16
2019-05-25T16:21:52.027Z,17.98
2019-05-25T16:24:25.950Z,17.93
2019-05-25T16:26:59.890Z,17.65
2019-05-25T16:29:33.856Z,18.04
2019-05-25T16:32:07.054Z,17.72
2019-05-25T16:34:40.496Z,17.87
2019-05-25T16:37:13.805Z,17.80
2019-05-25T16:39:48.356Z,17.75
2019-05-25T16:42:22.256Z,17.36
2019-05-25T16:44:55.055Z,17.50
2019-05-25T16:47:28.560Z,16.73
2019-05-25T16:50:02.041Z,17.05
2019-05-25T16:52:35.183Z,16.81
2019-05-25T16:55:08.542Z,16.91
2019-05-25T16:57:41.994Z,16.84
2019-05-25T17:00:19.645Z,16.96
2019-05-25T17:02:52.770Z,16.73
2019-05-25T17:05:26.247Z,16.44
2019-05-25T17:07:58.871Z,16.45
2019-05-25T17:10:32.304Z,16.23
2019-05-25T17:13:05.343Z,16.39
2019-05-25T17:15:39.917Z,16.29
2019-05-25T17:18:13.262Z,16.29
2019-05-25T17:20:48.301Z,16.27
2019-05-25T17:23:21.333Z,16.32
2019-05-25T17:25:55.195Z,16.05
2019-05-25T17:28:28.763Z,15.77
2019-05-25T17:31:02.142Z,15.67
2019-05-25T17:33:45.494Z,15.67
2019-05-25T17:36:12.888Z,15.50
2019-05-25T17:38:46.057Z,15.58
2019-05-25T17:41:18.702Z,15.32
2019-05-25T17:43:51.793Z,15.24
2019-05-25T17:46:25.288Z,15.43
2019-05-25T17:48:57.752Z,15.33
2019-05-25T17:51:31.234Z,15.31
2019-05-25T17:54:04.529Z,15.41
2019-05-25T17:56:40.402Z,15.30
2019-05-25T17:59:13.356Z,15.28
2019-05-25T18:01:49.378Z,15.23
2019-05-25T18:04:21.672Z,15.11
2019-05-25T18:06:56.735Z,14.97
2019-05-25T18:09:31.497Z,14.81
2019-05-25T18:12:06.647Z,14.86
2019-05-25T18:14:39.946Z,14.90
2019-05-25T18:17:12.531Z,14.71
2019-05-25T18:19:46.034Z,14.81
2019-05-25T18:22:19.174Z,14.78
2019-05-25T18:24:53.192Z,14.70
2019-05-25T18:27:26.762Z,14.72
2019-05-25T18:29:59.749Z,14.75
2019-05-25T18:32:32.406Z,14.86
2019-05-25T18:35:05.994Z,14.84
2019-05-25T18:37:39.299Z,14.95
2019-05-25T18:40:14.083Z,14.93
2019-05-25T18:42:47.369Z,15.01
2019-05-25T18:45:21.179Z,14.91
2019-05-25T18:47:54.415Z,14.84
2019-05-25T18:50:28.076Z,14.81
2019-05-25T18:53:03.265Z,14.60
2019-05-25T18:55:36.300Z,14.37
2019-05-25T18:58:09.814Z,14.24
2019-05-25T19:00:42.925Z,14.04
2019-05-25T19:03:16.448Z,13.88
2019-05-25T19:05:52.222Z,13.71
2019-05-25T19:08:28.902Z,13.59
2019-05-25T19:11:02.162Z,13.57
2019-05-25T19:13:36.786Z,13.42
2019-05-25T19:16:10.262Z,13.32
2019-05-25T19:18:44.242Z,13.25
2019-05-25T19:21:19.049Z,13.15
2019-05-25T19:23:52.314Z,12.96
2019-05-25T19:26:26.047Z,13.21
2019-05-25T19:28:59.116Z,12.92
2019-05-25T19:31:32.240Z,12.77
2019-05-25T19:34:05.650Z,12.72
2019-05-25T19:36:39.240Z,12.65
2019-05-25T19:39:12.461Z,12.57
2019-05-25T19:41:46.136Z,12.42
2019-05-25T19:44:19.280Z,12.33
2019-05-25T19:46:52.502Z,12.15
2019-05-25T19:49:26.046Z,12.09
2019-05-25T19:51:59.786Z,12.02
2019-05-25T19:54:33.025Z,11.94
2019-05-25T19:57:05.932Z,11.85
2019-05-25T19:59:38.895Z,11.74
2019-05-25T20:02:12.033Z,11.70
2019-05-25T20:04:45.795Z,11.64
2019-05-25T20:07:19.701Z,11.56
2019-05-25T20:09:52.788Z,11.54
2019-05-25T20:12:26.854Z,11.60
2019-05-25T20:14:59.395Z,11.49
2019-05-25T20:17:32.614Z,11.39
2019-05-25T20:20:09.163Z,11.31
2019-05-25T20:22:43.204Z,11.34
2019-05-25T20:25:16.408Z,11.21
2019-05-25T20:27:49.922Z,11.07
2019-05-25T20:30:23.332Z,11.01
2019-05-25T20:32:56.069Z,11.11
2019-05-25T20:35:32.957Z,11.15
2019-05-25T20:38:05.008Z,11.11
2019-05-25T20:40:38.519Z,11.13
2019-05-25T20:43:11.586Z,11.12
2019-05-25T20:45:45.983Z,11.03
2019-05-25T20:48:19.829Z,10.93
2019-05-25T20:50:53.429Z,10.94
2019-05-25T20:53:27.399Z,10.81
2019-05-25T20:56:01.157Z,10.74
2019-05-25T20:58:35.081Z,10.64
2019-05-25T21:01:08.203Z,10.55
2019-05-25T21:03:41.354Z,10.61
2019-05-25T21:06:14.563Z,10.71
2019-05-25T21:08:48.349Z,10.66
2019-05-25T21:11:21.320Z,10.58
2019-05-25T21:13:54.948Z,10.46
2019-05-25T21:16:28.826Z,10.33
2019-05-25T21:19:03.086Z,10.20
2019-05-25T21:21:36.115Z,10.17
2019-05-25T21:24:09.764Z,10.13
2019-05-25T21:26:43.230Z,10.11
2019-05-25T21:29:17.098Z,10.08
2019-05-25T21:31:50.366Z,10.00
2019-05-25T21:34:23.386Z,9.92
2019-05-25T21:36:57.739Z,9.85
2019-05-25T21:39:32.768Z,9.82
2019-05-25T21:42:13.848Z,9.88
2019-05-25T21:44:52.231Z,9.83
2019-05-25T21:47:28.954Z,9.90
2019-05-25T21:50:02.829Z,9.96
2019-05-25T21:52:49.987Z,9.89
2019-05-25T21:55:22.999Z,9.90
2019-05-25T21:58:03.173Z,9.89
2019-05-25T22:00:42.786Z,9.86
2019-05-25T22:04:10.323Z,9.77
2019-05-25T22:06:02.846Z,9.72
2019-05-25T22:08:40.830Z,9.68
2019-05-25T22:11:15.722Z,9.73
2019-05-25T22:13:50.251Z,9.89
2019-05-25T22:16:25.075Z,9.93
2019-05-25T22:18:58.545Z,9.91
2019-05-25T22:21:31.646Z,9.91
2019-05-25T22:24:10.764Z,9.87
2019-05-25T22:26:41.275Z,9.81
2019-05-25T22:29:15.461Z,9.69
2019-05-25T22:31:49.856Z,9.62
2019-05-25T22:34:27.921Z,9.51
2019-05-25T22:36:58.709Z,9.45
2019-05-25T22:39:32.615Z,9.45
2019-05-25T22:42:05.273Z,9.41
2019-05-25T22:44:38.567Z,9.43
2019-05-25T22:47:11.988Z,9.38
2019-05-25T22:49:46.504Z,9.29
2019-05-25T22:52:19.242Z,9.32
2019-05-25T22:54:55.862Z,9.32
2019-05-25T22:57:29.725Z,9.28
2019-05-25T23:00:03.539Z,9.29
2019-05-25T23:02:36.623Z,9.18
2019-05-25T23:05:10.597Z,9.21
2019-05-25T23:07:45.615Z,9.19
2019-05-25T23:10:21.379Z,9.16
2019-05-25T23:12:55.236Z,9.07
2019-05-25T23:15:29.775Z,9.17
2019-05-25T23:18:03.171Z,9.31
2019-05-25T23:20:41.343Z,9.34
2019-05-25T23:23:12.343Z,9.31
2019-05-25T23:25:49.055Z,9.25
2019-05-25T23:28:26.268Z,9.20
2019-05-25T23:30:59.943Z,9.23
2019-05-25T23:33:32.627Z,9.14
2019-05-25T23:36:09.622Z,9.03
2019-05-25T23:38:41.650Z,8.96
2019-05-25T23:41:19.082Z,8.91
2019-05-25T23:43:51.762Z,9.03
2019-05-25T23:46:29.278Z,8.95
2019-05-25T23:49:02.322Z,8.89
2019-05-25T23:51:38.969Z,8.86
2019-05-25T23:54:12.810Z,8.82
2019-05-25T23:56:49.890Z,8.77
2019-05-25T23:59:23.716Z,8.72
